Time;durP1;ratioP1;P1;durP2;ratioP2;P2;SDS_P1;SDS_P2;PMS_P1;PMS_P2;Temp;Humidity;BMP_temperature;BMP_pressure;BME280_temperature;BME280_humidity;BME280_pressure;Samples;Min_cycle;Max_cycle;Signal;HPM_P1;HPM_P2
2022/01/24 00:02:23;;;;;;;53.50;17.27;;;;;;;;;;4935488;28;20421;-66
2022/01/24 00:04:49;;;;;;;53.97;17.90;;;;;;;;;;4935562;28;20034;-66
2022/01/24 00:07:18;;;;;;;50.35;17.88;;;;;;;;;;4952709;28;20487;-66
2022/01/24 00:09:44;;;;;;;46.58;18.35;;;;;;;;;;4935452;28;20456;-66
2022/01/24 00:12:18;;;;;;;46.88;16.38;;;;;;;;;;4953188;28;20325;-66
2022/01/24 00:18:01;;;;;;;49.15;17.75;;;;;;;;;;4954108;28;20512;-66
2022/01/24 00:28:13;;;;;;;46.58;14.68;;;;;;;;;;4938341;28;20420;-67
2022/01/24 00:30:39;;;;;;;57.05;18.58;;;;;;;;;;4950963;28;20112;-66
2022/01/24 00:33:04;;;;;;;54.28;17.80;;;;;;;;;;4934757;28;20415;-66
2022/01/24 00:35:30;;;;;;;58.55;20.75;;;;;;;;;;4952360;28;20340;-66
2022/01/24 00:38:01;;;;;;;59.83;20.30;;;;;;;;;;4952686;28;20353;-66
2022/01/24 00:40:28;;;;;;;50.78;18.23;;;;;;;;;;4952513;28;20475;-66
2022/01/24 00:42:57;;;;;;;55.85;20.45;;;;;;;;;;4934879;28;20419;-66
2022/01/24 00:48:29;;;;;;;50.95;17.95;;;;;;;;;;4952992;28;20392;-66
2022/01/24 00:56:11;;;;;;;52.72;17.92;;;;;;;;;;4951461;28;20322;-66
2022/01/24 00:58:36;;;;;;;56.08;17.42;;;;;;;;;;4950773;28;20388;-66
2022/01/24 01:01:02;;;;;;;48.83;15.73;;;;;;;;;;4956316;28;20369;-66
2022/01/24 01:03:28;;;;;;;46.80;16.10;;;;;;;;;;4959305;28;20364;-67
2022/01/24 01:06:05;;;;;;;45.90;15.45;;;;;;;;;;4951787;28;20520;-66
2022/01/24 01:19:30;;;;;;;55.72;16.30;;;;;;;;;;4937549;28;20361;-66
2022/01/24 01:21:56;;;;;;;47.30;17.13;;;;;;;;;;4951564;28;20341;-66
2022/01/24 01:24:23;;;;;;;45.45;16.73;;;;;;;;;;4949814;28;20341;-66
2022/01/24 01:26:54;;;;;;;51.35;17.35;;;;;;;;;;4952902;28;20026;-65
2022/01/24 01:29:25;;;;;;;44.08;17.55;;;;;;;;;;4934570;28;20383;-65
2022/01/24 01:55:39;;;;;;;39.45;15.20;;;;;;;;;;4935288;28;20425;-66
2022/01/24 01:58:06;;;;;;;49.08;16.60;;;;;;;;;;4951034;28;20111;-66
2022/01/24 02:00:31;;;;;;;50.15;15.93;;;;;;;;;;4932996;28;20022;-65
2022/01/24 02:02:57;;;;;;;48.25;16.23;;;;;;;;;;4950880;28;20052;-65
2022/01/24 02:05:22;;;;;;;41.08;15.05;;;;;;;;;;4932861;28;20459;-66
2022/01/24 02:07:49;;;;;;;58.35;18.55;;;;;;;;;;4950086;28;20073;-65
2022/01/24 02:10:16;;;;;;;50.88;17.42;;;;;;;;;;4950244;28;20333;-66
2022/01/24 02:12:42;;;;;;;50.72;17.40;;;;;;;;;;4951087;28;20453;-66
2022/01/24 02:15:07;;;;;;;45.10;16.90;;;;;;;;;;4935271;28;20456;-65
2022/01/24 02:17:50;;;;;;;51.92;16.38;;;;;;;;;;4960213;28;20388;-65
2022/01/24 02:23:01;;;;;;;43.67;16.40;;;;;;;;;;4951063;28;20034;-65
2022/01/24 02:25:29;;;;;;;42.30;15.70;;;;;;;;;;4950294;28;20409;-66
2022/01/24 02:28:01;;;;;;;42.90;15.27;;;;;;;;;;4933565;28;20348;-66
2022/01/24 02:33:11;;;;;;;42.78;15.73;;;;;;;;;;4951067;28;20471;-66
2022/01/24 02:35:37;;;;;;;47.22;15.35;;;;;;;;;;4932830;28;20448;-65
2022/01/24 02:38:08;;;;;;;45.63;15.45;;;;;;;;;;4932989;28;20516;-66
2022/01/24 02:40:33;;;;;;;52.38;15.98;;;;;;;;;;4950903;28;20395;-65
2022/01/24 02:48:22;;;;;;;45.65;14.48;;;;;;;;;;4950096;28;20452;-66
2022/01/24 02:48:46;;;;;;;37.63;15.07;;;;;;;;;;4949795;28;20369;-65
2022/01/24 02:53:48;;;;;;;37.83;14.68;;;;;;;;;;4949826;28;20125;-66
2022/01/24 02:56:14;;;;;;;34.58;14.70;;;;;;;;;;4932497;28;20478;-66
2022/01/24 02:58:39;;;;;;;41.55;15.38;;;;;;;;;;4949638;28;20054;-66
2022/01/24 03:01:07;;;;;;;35.63;14.93;;;;;;;;;;4950458;28;20421;-66
2022/01/24 03:03:36;;;;;;;36.75;14.90;;;;;;;;;;4950142;28;20025;-66
2022/01/24 03:06:02;;;;;;;33.83;14.85;;;;;;;;;;4950211;28;20112;-65
2022/01/24 03:08:27;;;;;;;45.25;14.77;;;;;;;;;;4932014;28;20437;-65
2022/01/24 03:10:53;;;;;;;39.33;14.75;;;;;;;;;;4949824;28;20475;-66
2022/01/24 03:15:51;;;;;;;38.88;14.68;;;;;;;;;;4948301;28;20026;-65
2022/01/24 03:18:17;;;;;;;43.92;14.32;;;;;;;;;;4950500;28;20305;-66
2022/01/24 03:20:46;;;;;;;45.67;16.10;;;;;;;;;;4948328;28;20379;-67
2022/01/24 03:23:13;;;;;;;34.28;13.95;;;;;;;;;;4932599;28;20507;-65
2022/01/24 03:25:38;;;;;;;38.28;14.68;;;;;;;;;;4949702;28;20026;-66
2022/01/24 03:28:04;;;;;;;40.70;14.25;;;;;;;;;;4948476;28;20044;-66
2022/01/24 03:30:31;;;;;;;45.85;14.55;;;;;;;;;;4949686;28;20104;-66
2022/01/24 03:32:56;;;;;;;40.50;13.95;;;;;;;;;;4949552;28;20022;-66
2022/01/24 03:35:22;;;;;;;35.47;13.82;;;;;;;;;;4932051;28;20052;-65
2022/01/24 03:37:47;;;;;;;34.45;12.98;;;;;;;;;;4950618;28;20026;-66
2022/01/24 03:40:12;;;;;;;35.38;14.00;;;;;;;;;;4949796;28;20466;-66
2022/01/24 03:42:38;;;;;;;36.38;13.68;;;;;;;;;;4932379;28;20508;-65
2022/01/24 03:45:07;;;;;;;31.42;12.70;;;;;;;;;;4949459;28;20518;-66
2022/01/24 03:49:58;;;;;;;38.05;15.73;;;;;;;;;;4949475;28;20384;-65
2022/01/24 03:52:23;;;;;;;30.95;12.15;;;;;;;;;;4950298;28;20026;-66
2022/01/24 03:54:50;;;;;;;34.58;13.77;;;;;;;;;;4949667;28;20404;-65
2022/01/24 03:57:17;;;;;;;33.88;13.10;;;;;;;;;;4948430;28;20029;-66
2022/01/24 03:59:43;;;;;;;35.65;12.20;;;;;;;;;;4948362;28;20038;-65
2022/01/24 04:02:09;;;;;;;42.25;12.98;;;;;;;;;;4931822;28;20427;-66
2022/01/24 04:04:35;;;;;;;33.15;12.88;;;;;;;;;;4949486;28;20395;-65
2022/01/24 04:07:01;;;;;;;32.88;12.25;;;;;;;;;;4951558;28;20519;-66
2022/01/24 04:09:26;;;;;;;35.92;14.25;;;;;;;;;;4935343;28;20372;-67
2022/01/24 04:11:56;;;;;;;35.83;13.60;;;;;;;;;;4935087;28;20372;-65
2022/01/24 04:14:35;;;;;;;35.28;13.20;;;;;;;;;;4952440;28;20476;-66
2022/01/24 04:22:32;;;;;;;36.20;11.82;;;;;;;;;;4951115;28;20049;-65
2022/01/24 04:25:03;;;;;;;30.27;13.13;;;;;;;;;;4952675;28;20455;-65
2022/01/24 04:27:28;;;;;;;35.53;12.85;;;;;;;;;;4952559;28;20439;-65
2022/01/24 04:29:54;;;;;;;34.10;11.60;;;;;;;;;;4935271;28;20333;-65
2022/01/24 04:32:20;;;;;;;36.70;13.82;;;;;;;;;;4952679;28;20457;-66
2022/01/24 04:34:45;;;;;;;36.97;12.43;;;;;;;;;;4935123;28;20375;-65
2022/01/24 04:37:11;;;;;;;34.03;13.48;;;;;;;;;;4952588;28;20030;-65
2022/01/24 04:39:36;;;;;;;29.70;13.77;;;;;;;;;;4952343;28;20477;-66
2022/01/24 04:42:09;;;;;;;33.42;11.68;;;;;;;;;;4952186;28;20354;-65
2022/01/24 04:45:10;;;;;;;26.60;11.57;;;;;;;;;;4935627;28;20428;-66
2022/01/24 04:50:20;;;;;;;29.50;10.68;;;;;;;;;;4952264;28;20026;-65
2022/01/24 04:53:13;;;;;;;33.85;12.50;;;;;;;;;;4952797;28;20454;-65
2022/01/24 04:55:38;;;;;;;34.30;11.27;;;;;;;;;;4953169;28;20309;-66
2022/01/24 04:58:04;;;;;;;31.38;10.98;;;;;;;;;;4951736;28;20048;-66
2022/01/24 05:00:29;;;;;;;30.15;12.05;;;;;;;;;;4935068;28;20428;-65
2022/01/24 05:02:54;;;;;;;30.23;11.43;;;;;;;;;;4952501;28;20033;-65
2022/01/24 05:05:22;;;;;;;27.83;11.98;;;;;;;;;;4952748;28;20396;-66
2022/01/24 05:07:50;;;;;;;29.70;12.80;;;;;;;;;;4951243;28;20068;-65
2022/01/24 05:10:25;;;;;;;30.23;11.55;;;;;;;;;;4951555;28;20029;-66
2022/01/24 05:23:39;;;;;;;28.15;11.50;;;;;;;;;;4951691;28;20140;-66
2022/01/24 05:26:06;;;;;;;29.42;11.93;;;;;;;;;;4951358;28;20408;-65
2022/01/24 05:28:34;;;;;;;30.45;11.80;;;;;;;;;;4951622;28;20325;-65
2022/01/24 05:30:59;;;;;;;32.22;11.95;;;;;;;;;;4953366;28;20419;-65
2022/01/24 05:33:25;;;;;;;31.15;11.75;;;;;;;;;;4951406;28;20380;-65
2022/01/24 05:35:51;;;;;;;28.73;11.15;;;;;;;;;;4936767;28;20592;-65
2022/01/24 05:38:16;;;;;;;29.23;10.95;;;;;;;;;;4931787;28;20392;-66
2022/01/24 05:40:42;;;;;;;28.92;11.27;;;;;;;;;;4932369;28;20450;-66
2022/01/24 05:43:07;;;;;;;31.00;12.27;;;;;;;;;;4914436;28;20380;-65
2022/01/24 05:45:33;;;;;;;26.77;12.18;;;;;;;;;;4931700;28;20096;-66
2022/01/24 05:47:59;;;;;;;35.40;12.05;;;;;;;;;;4932416;28;20104;-66
2022/01/24 05:50:24;;;;;;;30.63;12.15;;;;;;;;;;4914194;28;20422;-65
2022/01/24 05:52:50;;;;;;;30.55;11.45;;;;;;;;;;4932887;28;20461;-65
2022/01/24 05:55:16;;;;;;;34.63;12.88;;;;;;;;;;4932990;28;20337;-65
2022/01/24 05:57:41;;;;;;;30.58;11.77;;;;;;;;;;4914505;28;20555;-64
2022/01/24 06:00:09;;;;;;;29.30;11.52;;;;;;;;;;4932440;28;20440;-65
2022/01/24 06:02:34;;;;;;;34.58;11.95;;;;;;;;;;4914408;28;20226;-65
2022/01/24 06:04:59;;;;;;;30.35;13.55;;;;;;;;;;4931104;28;20117;-65
2022/01/24 06:07:25;;;;;;;29.55;13.00;;;;;;;;;;4931110;28;20461;-65
2022/01/24 06:09:50;;;;;;;28.95;11.98;;;;;;;;;;4929403;28;20449;-67
2022/01/24 06:12:16;;;;;;;28.02;11.55;;;;;;;;;;4913902;28;20524;-65
2022/01/24 06:14:41;;;;;;;35.50;12.50;;;;;;;;;;4931362;28;20310;-65
2022/01/24 06:17:06;;;;;;;27.30;11.13;;;;;;;;;;4931234;28;20433;-65
2022/01/24 06:19:32;;;;;;;27.88;10.48;;;;;;;;;;4930937;28;20516;-65
2022/01/24 06:21:57;;;;;;;32.60;11.95;;;;;;;;;;4931417;28;20485;-66
2022/01/24 06:24:22;;;;;;;32.55;11.30;;;;;;;;;;4931787;28;20034;-65
2022/01/24 06:26:47;;;;;;;37.17;12.95;;;;;;;;;;4931426;28;20430;-65
2022/01/24 06:29:13;;;;;;;30.50;10.45;;;;;;;;;;4931939;28;20394;-65
2022/01/24 06:31:39;;;;;;;25.15;10.55;;;;;;;;;;4914515;28;20320;-65
2022/01/24 06:34:05;;;;;;;30.80;12.30;;;;;;;;;;4913181;28;20349;-66
2022/01/24 06:36:30;;;;;;;35.97;12.20;;;;;;;;;;4913719;28;20353;-66
2022/01/24 06:38:56;;;;;;;27.45;10.23;;;;;;;;;;4929092;28;20073;-65
2022/01/24 06:41:27;;;;;;;28.98;11.60;;;;;;;;;;4932078;28;20429;-65
2022/01/24 06:43:52;;;;;;;24.95;10.88;;;;;;;;;;4930788;28;20418;-67
2022/01/24 06:46:18;;;;;;;26.48;11.57;;;;;;;;;;4913522;28;20425;-64
2022/01/24 06:48:43;;;;;;;23.70;9.60;;;;;;;;;;4930716;28;20452;-66
2022/01/24 06:51:10;;;;;;;26.92;11.77;;;;;;;;;;4930590;28;20396;-65
2022/01/24 06:53:38;;;;;;;29.75;11.95;;;;;;;;;;4930482;28;20492;-66
2022/01/24 06:56:05;;;;;;;25.58;10.23;;;;;;;;;;4930651;28;20449;-66
2022/01/24 06:58:30;;;;;;;30.48;11.10;;;;;;;;;;4928810;28;20369;-66
2022/01/24 07:00:56;;;;;;;26.45;10.40;;;;;;;;;;4929075;28;20326;-65
2022/01/24 07:03:21;;;;;;;25.92;10.80;;;;;;;;;;4930946;28;20394;-65
2022/01/24 07:05:46;;;;;;;29.60;12.25;;;;;;;;;;4930069;28;20421;-65
2022/01/24 07:08:11;;;;;;;30.20;12.15;;;;;;;;;;4930432;28;20073;-65
2022/01/24 07:10:37;;;;;;;30.02;10.90;;;;;;;;;;4931210;28;20353;-65
2022/01/24 07:13:02;;;;;;;26.02;10.85;;;;;;;;;;4930951;28;20365;-66
2022/01/24 07:15:34;;;;;;;35.38;12.35;;;;;;;;;;4931172;28;20177;-65
2022/01/24 07:20:29;;;;;;;26.25;10.68;;;;;;;;;;4913580;28;20357;-65
2022/01/24 07:22:54;;;;;;;24.05;11.13;;;;;;;;;;4931654;28;20081;-64
2022/01/24 07:25:21;;;;;;;32.83;10.98;;;;;;;;;;4930258;28;20048;-65
2022/01/24 07:27:47;;;;;;;26.75;10.98;;;;;;;;;;4930487;28;20410;-65
2022/01/24 07:30:12;;;;;;;29.50;11.25;;;;;;;;;;4931033;28;20489;-65
2022/01/24 07:32:38;;;;;;;28.67;11.50;;;;;;;;;;4912892;28;20499;-65
2022/01/24 07:35:03;;;;;;;33.20;12.27;;;;;;;;;;4930015;28;20433;-64
2022/01/24 07:37:29;;;;;;;27.95;10.27;;;;;;;;;;4930045;28;20034;-65
2022/01/24 07:39:55;;;;;;;28.33;10.93;;;;;;;;;;4930169;28;20452;-69
2022/01/24 07:42:39;;;;;;;27.92;10.93;;;;;;;;;;4935710;28;20481;-64
2022/01/24 07:45:05;;;;;;;27.80;11.40;;;;;;;;;;4933760;28;20329;-66
2022/01/24 07:47:31;;;;;;;25.05;10.48;;;;;;;;;;4934299;28;20311;-66
2022/01/24 07:49:57;;;;;;;28.13;12.73;;;;;;;;;;4933786;28;20337;-66
2022/01/24 07:52:22;;;;;;;31.38;10.98;;;;;;;;;;4934244;28;20470;-64
2022/01/24 07:54:47;;;;;;;21.77;9.88;;;;;;;;;;4933588;28;20341;-65
2022/01/24 07:57:13;;;;;;;31.70;11.40;;;;;;;;;;4934289;28;20441;-65
2022/01/24 07:59:38;;;;;;;31.90;11.30;;;;;;;;;;4934784;28;20384;-65
2022/01/24 08:02:03;;;;;;;29.77;11.40;;;;;;;;;;4933729;28;20437;-65
2022/01/24 08:04:29;;;;;;;23.10;10.75;;;;;;;;;;4932627;28;20299;-65
2022/01/24 08:06:54;;;;;;;26.55;12.30;;;;;;;;;;4933529;28;20408;-66
2022/01/24 08:09:19;;;;;;;34.70;12.95;;;;;;;;;;4933422;28;20369;-65
2022/01/24 08:11:45;;;;;;;28.55;11.48;;;;;;;;;;4933758;28;20306;-66
2022/01/24 08:14:10;;;;;;;31.05;11.10;;;;;;;;;;4934177;28;20452;-67
2022/01/24 08:16:37;;;;;;;25.90;10.93;;;;;;;;;;4934577;28;20453;-65
2022/01/24 08:19:02;;;;;;;23.85;10.02;;;;;;;;;;4933268;28;20049;-65
2022/01/24 08:21:28;;;;;;;30.95;11.30;;;;;;;;;;4933301;28;20030;-65
2022/01/24 08:23:53;;;;;;;27.45;11.32;;;;;;;;;;4933310;28;20053;-64
2022/01/24 08:26:18;;;;;;;28.83;11.25;;;;;;;;;;4916149;28;20548;-64
2022/01/24 08:28:44;;;;;;;29.08;12.15;;;;;;;;;;4916100;28;20508;-65
2022/01/24 08:31:09;;;;;;;24.92;10.82;;;;;;;;;;4932976;28;20417;-65
2022/01/24 08:33:35;;;;;;;33.95;11.50;;;;;;;;;;4932819;28;20344;-65
2022/01/24 08:36:00;;;;;;;23.30;10.18;;;;;;;;;;4932952;28;20112;-68
2022/01/24 08:38:26;;;;;;;23.35;9.57;;;;;;;;;;4934076;28;20511;-65
2022/01/24 08:40:57;;;;;;;27.58;11.10;;;;;;;;;;4915537;28;20453;-64
2022/01/24 08:43:37;;;;;;;23.25;10.80;;;;;;;;;;4917331;28;20508;-67
2022/01/24 08:46:02;;;;;;;30.10;10.95;;;;;;;;;;4932890;28;20608;-65
2022/01/24 08:48:29;;;;;;;26.58;10.93;;;;;;;;;;4933403;28;20500;-65
2022/01/24 08:50:56;;;;;;;28.25;11.38;;;;;;;;;;4932657;28;20420;-65
2022/01/24 08:53:23;;;;;;;25.13;10.88;;;;;;;;;;4915314;28;20419;-66
2022/01/24 08:55:48;;;;;;;24.85;11.13;;;;;;;;;;4915765;28;20337;-65
2022/01/24 08:58:15;;;;;;;25.70;10.85;;;;;;;;;;4932701;28;20310;-65
2022/01/24 09:00:44;;;;;;;26.60;10.73;;;;;;;;;;4932868;28;20137;-65
2022/01/24 09:03:11;;;;;;;26.75;11.50;;;;;;;;;;4915090;28;20057;-66
2022/01/24 09:05:37;;;;;;;22.27;9.25;;;;;;;;;;4932794;28;20389;-65
2022/01/24 09:08:04;;;;;;;27.52;12.00;;;;;;;;;;4932164;28;20425;-67
2022/01/24 09:10:29;;;;;;;22.38;10.68;;;;;;;;;;4915986;28;20429;-65
2022/01/24 09:12:55;;;;;;;22.35;10.25;;;;;;;;;;4932579;28;20325;-66
2022/01/24 09:15:20;;;;;;;26.10;10.40;;;;;;;;;;4932521;28;20030;-65
2022/01/24 09:17:46;;;;;;;25.40;10.35;;;;;;;;;;4931939;28;20031;-65
2022/01/24 09:20:12;;;;;;;28.73;10.27;;;;;;;;;;4932067;28;20349;-65
2022/01/24 09:22:37;;;;;;;28.55;10.02;;;;;;;;;;4931915;28;20026;-66
2022/01/24 09:25:05;;;;;;;25.63;10.50;;;;;;;;;;4931999;28;20038;-65
2022/01/24 09:27:30;;;;;;;27.15;10.23;;;;;;;;;;4914801;28;20468;-65
2022/01/24 09:29:56;;;;;;;25.52;9.70;;;;;;;;;;4932084;28;20396;-65
2022/01/24 09:32:22;;;;;;;24.70;10.70;;;;;;;;;;4914642;28;20397;-66
2022/01/24 09:34:47;;;;;;;21.02;9.32;;;;;;;;;;4915138;28;20340;-65
2022/01/24 09:37:13;;;;;;;26.17;10.05;;;;;;;;;;4914647;28;20415;-65
2022/01/24 09:39:38;;;;;;;22.75;10.02;;;;;;;;;;4932618;28;20499;-66
2022/01/24 09:42:05;;;;;;;26.30;10.23;;;;;;;;;;4930524;28;20349;-65
2022/01/24 09:44:32;;;;;;;26.70;11.32;;;;;;;;;;4932315;28;20420;-65
2022/01/24 09:46:57;;;;;;;27.13;11.00;;;;;;;;;;4931765;28;20412;-65
2022/01/24 09:49:23;;;;;;;24.75;10.10;;;;;;;;;;4914001;28;20089;-65
2022/01/24 09:51:50;;;;;;;22.20;9.10;;;;;;;;;;4931675;28;20068;-65
2022/01/24 09:54:15;;;;;;;22.13;9.30;;;;;;;;;;4931192;28;20430;-65
2022/01/24 09:56:41;;;;;;;25.55;10.77;;;;;;;;;;4931595;28;20329;-65
2022/01/24 09:59:06;;;;;;;19.65;10.63;;;;;;;;;;4932431;28;20305;-65
2022/01/24 10:01:33;;;;;;;23.80;10.98;;;;;;;;;;4931673;28;20356;-65
2022/01/24 10:04:08;;;;;;;26.75;11.18;;;;;;;;;;4931160;28;20088;-66
2022/01/24 10:07:06;;;;;;;23.20;10.15;;;;;;;;;;4930785;28;20443;-66
2022/01/24 10:09:43;;;;;;;24.30;11.80;;;;;;;;;;4915026;28;20389;-65
2022/01/24 10:17:38;;;;;;;27.30;10.10;;;;;;;;;;4916735;28;20448;-65
2022/01/24 10:20:20;;;;;;;22.38;9.90;;;;;;;;;;4913888;28;20045;-66
2022/01/24 10:23:07;;;;;;;25.15;9.63;;;;;;;;;;4931896;28;20453;-66
2022/01/24 10:25:51;;;;;;;27.50;10.40;;;;;;;;;;4931310;28;20693;-65
2022/01/24 10:28:31;;;;;;;22.27;9.98;;;;;;;;;;4931643;28;20385;-65
2022/01/24 10:31:07;;;;;;;25.60;9.60;;;;;;;;;;4931102;28;20306;-66
2022/01/24 10:33:51;;;;;;;26.65;10.77;;;;;;;;;;4931313;28;20471;-66
2022/01/24 10:36:37;;;;;;;23.50;10.80;;;;;;;;;;4931109;28;20400;-65
2022/01/24 10:39:19;;;;;;;23.00;10.20;;;;;;;;;;4931086;28;20361;-66
2022/01/24 10:41:57;;;;;;;21.38;9.60;;;;;;;;;;4931264;28;20034;-65
2022/01/24 10:44:29;;;;;;;25.90;9.98;;;;;;;;;;4930994;28;20049;-65
2022/01/24 10:47:28;;;;;;;22.00;9.43;;;;;;;;;;4930693;28;20452;-66
2022/01/24 10:49:54;;;;;;;24.42;10.50;;;;;;;;;;4930765;28;20088;-67
2022/01/24 10:52:24;;;;;;;22.45;9.43;;;;;;;;;;4913097;28;20030;-66
2022/01/24 10:54:52;;;;;;;25.10;9.80;;;;;;;;;;4931091;28;20495;-67
2022/01/24 10:57:25;;;;;;;26.17;9.68;;;;;;;;;;4931633;28;20424;-67
2022/01/24 10:59:51;;;;;;;27.45;9.90;;;;;;;;;;4913310;28;20376;-65
2022/01/24 11:02:17;;;;;;;28.17;9.85;;;;;;;;;;4913357;28;20121;-66
2022/01/24 11:04:43;;;;;;;26.33;10.20;;;;;;;;;;4930474;28;20076;-66
2022/01/24 11:07:08;;;;;;;20.63;9.55;;;;;;;;;;4930171;28;20393;-66
2022/01/24 11:09:35;;;;;;;22.98;9.80;;;;;;;;;;4930724;28;20401;-65
2022/01/24 11:12:10;;;;;;;21.00;9.05;;;;;;;;;;4913095;28;20516;-66
2022/01/24 11:14:36;;;;;;;22.38;9.07;;;;;;;;;;4930351;28;20326;-67
2022/01/24 11:17:04;;;;;;;20.23;8.88;;;;;;;;;;4933390;28;20413;-66
2022/01/24 11:19:39;;;;;;;24.92;9.90;;;;;;;;;;4935436;28;20410;-67
2022/01/24 11:22:06;;;;;;;19.77;9.25;;;;;;;;;;4935303;28;20511;-66
2022/01/24 11:27:04;;;;;;;21.48;9.18;;;;;;;;;;4934885;28;20303;-66
2022/01/24 11:29:30;;;;;;;24.05;9.50;;;;;;;;;;4916479;28;20441;-66
2022/01/24 11:32:07;;;;;;;24.77;10.00;;;;;;;;;;4862779;28;20511;-65
2022/01/24 11:34:39;;;;;;;20.27;9.32;;;;;;;;;;4936011;28;20376;-67
2022/01/24 11:37:06;;;;;;;21.83;9.45;;;;;;;;;;4936212;28;20463;-66
2022/01/24 11:39:33;;;;;;;26.13;9.38;;;;;;;;;;4953518;28;20432;-66
2022/01/24 11:41:58;;;;;;;25.55;9.93;;;;;;;;;;4952339;28;20317;-65
2022/01/24 11:44:26;;;;;;;24.52;9.68;;;;;;;;;;4935781;28;20340;-65
2022/01/24 11:46:58;;;;;;;24.60;9.38;;;;;;;;;;4953279;28;20460;-66
2022/01/24 11:49:34;;;;;;;20.83;9.15;;;;;;;;;;4953131;28;20447;-66
2022/01/24 11:52:16;;;;;;;22.67;9.70;;;;;;;;;;4920667;28;21483;-65
2022/01/24 11:55:12;;;;;;;17.95;9.05;;;;;;;;;;4954032;28;20053;-66
2022/01/24 11:57:42;;;;;;;25.85;8.85;;;;;;;;;;4953008;28;20413;-65
2022/01/24 12:00:07;;;;;;;24.98;9.05;;;;;;;;;;4953265;28;20353;-66
2022/01/24 12:02:47;;;;;;;23.88;9.70;;;;;;;;;;4952791;28;20360;-66
2022/01/24 12:05:26;;;;;;;26.98;9.27;;;;;;;;;;4935667;28;20116;-66
2022/01/24 12:07:55;;;;;;;18.48;9.45;;;;;;;;;;4952151;28;20460;-66
2022/01/24 12:10:20;;;;;;;25.95;10.02;;;;;;;;;;4953887;28;20112;-66
2022/01/24 12:13:14;;;;;;;20.48;9.15;;;;;;;;;;4953162;28;20038;-66
2022/01/24 12:15:43;;;;;;;18.15;8.48;;;;;;;;;;4944556;28;20337;-67
2022/01/24 12:18:12;;;;;;;19.60;7.25;;;;;;;;;;4952535;28;20545;-66
2022/01/24 12:20:37;;;;;;;22.00;9.07;;;;;;;;;;4935258;28;20460;-66
2022/01/24 12:23:24;;;;;;;22.23;8.95;;;;;;;;;;4952798;28;20045;-67
2022/01/24 12:26:29;;;;;;;27.90;11.20;;;;;;;;;;4952508;28;20345;-68
2022/01/24 12:29:03;;;;;;;22.75;8.45;;;;;;;;;;4919766;28;20060;-66
2022/01/24 12:31:31;;;;;;;19.92;8.95;;;;;;;;;;4952256;28;20345;-67
2022/01/24 12:34:04;;;;;;;19.60;7.95;;;;;;;;;;4967979;28;20468;-66
2022/01/24 12:36:39;;;;;;;17.33;7.72;;;;;;;;;;4967076;28;20108;-66
2022/01/24 12:39:10;;;;;;;16.85;8.20;;;;;;;;;;4952671;28;20384;-67
2022/01/24 12:41:41;;;;;;;24.35;9.57;;;;;;;;;;4966814;28;20416;-66
2022/01/24 12:46:33;;;;;;;23.40;8.77;;;;;;;;;;4952377;28;20062;-66
2022/01/24 12:49:02;;;;;;;22.40;8.55;;;;;;;;;;4951971;28;20133;-66
2022/01/24 12:51:29;;;;;;;19.27;8.40;;;;;;;;;;4952696;28;20572;-68
2022/01/24 12:53:55;;;;;;;17.73;7.85;;;;;;;;;;4966508;28;20380;-67
2022/01/24 12:56:25;;;;;;;21.00;8.10;;;;;;;;;;4952680;28;20515;-66
2022/01/24 12:58:51;;;;;;;17.17;7.82;;;;;;;;;;4934293;28;20503;-66
2022/01/24 13:01:20;;;;;;;18.02;8.20;;;;;;;;;;4952254;28;20419;-66
2022/01/24 13:03:55;;;;;;;18.05;8.18;;;;;;;;;;4951938;28;20437;-66
2022/01/24 13:06:21;;;;;;;19.85;7.38;;;;;;;;;;4934039;28;20377;-67
2022/01/24 13:08:53;;;;;;;18.77;8.52;;;;;;;;;;4952066;28;20460;-67
2022/01/24 13:11:18;;;;;;;25.15;9.05;;;;;;;;;;4934475;28;20449;-66
2022/01/24 13:14:38;;;;;;;17.40;7.63;;;;;;;;;;4934394;28;20521;-66
2022/01/24 13:22:48;;;;;;;21.80;7.78;;;;;;;;;;4939373;28;20356;-66
2022/01/24 13:25:15;;;;;;;20.30;8.13;;;;;;;;;;4965354;28;20416;-66
2022/01/24 13:27:49;;;;;;;20.10;8.57;;;;;;;;;;4951515;28;20368;-66
2022/01/24 13:30:17;;;;;;;21.80;8.35;;;;;;;;;;4933873;28;20403;-66
2022/01/24 13:32:46;;;;;;;19.65;8.18;;;;;;;;;;4951335;28;20492;-67
2022/01/24 13:35:32;;;;;;;16.92;8.30;;;;;;;;;;4966211;28;20476;-65
2022/01/24 13:37:59;;;;;;;22.35;8.52;;;;;;;;;;4950690;28;20536;-68
2022/01/24 13:40:39;;;;;;;23.67;9.73;;;;;;;;;;4970049;28;20056;-67
2022/01/24 13:43:06;;;;;;;24.30;10.25;;;;;;;;;;4970935;28;20346;-67
2022/01/24 13:45:34;;;;;;;22.13;10.43;;;;;;;;;;4970526;28;20436;-66
2022/01/24 13:48:00;;;;;;;31.35;11.95;;;;;;;;;;4970144;28;20364;-67
2022/01/24 13:50:27;;;;;;;27.27;10.77;;;;;;;;;;4967890;28;20464;-66
2022/01/24 13:52:52;;;;;;;19.23;8.55;;;;;;;;;;4968297;28;20391;-66
2022/01/24 13:55:20;;;;;;;26.08;10.45;;;;;;;;;;4969701;28;20353;-68
2022/01/24 13:57:47;;;;;;;22.95;9.63;;;;;;;;;;4970683;28;20456;-67
2022/01/24 14:00:16;;;;;;;25.25;10.15;;;;;;;;;;4951786;28;20466;-66
2022/01/24 14:02:42;;;;;;;27.25;10.10;;;;;;;;;;4969773;28;20382;-66
2022/01/24 14:05:08;;;;;;;21.48;9.30;;;;;;;;;;4970240;28;20413;-67
2022/01/24 14:07:41;;;;;;;32.90;10.27;;;;;;;;;;4970849;28;20330;-66
2022/01/24 14:10:09;;;;;;;19.95;9.50;;;;;;;;;;4952311;28;20347;-66
2022/01/24 14:12:55;;;;;;;23.48;9.68;;;;;;;;;;4970344;28;20468;-68
2022/01/24 14:15:38;;;;;;;20.85;8.52;;;;;;;;;;4969824;28;20413;-68
2022/01/24 14:20:43;;;;;;;24.33;9.52;;;;;;;;;;4971491;28;20452;-66
2022/01/24 14:23:34;;;;;;;28.23;9.90;;;;;;;;;;4952537;28;20325;-66
2022/01/24 14:26:14;;;;;;;18.10;9.43;;;;;;;;;;4970404;28;20025;-66
2022/01/24 14:28:39;;;;;;;24.55;9.77;;;;;;;;;;4970442;28;21332;-65
2022/01/24 14:31:10;;;;;;;23.30;10.23;;;;;;;;;;4953262;28;20021;-66
2022/01/24 14:33:36;;;;;;;17.95;9.00;;;;;;;;;;4969619;28;20353;-67
2022/01/24 14:36:13;;;;;;;20.92;9.85;;;;;;;;;;4969968;28;20096;-65
2022/01/24 14:38:47;;;;;;;15.68;8.52;;;;;;;;;;4969815;28;20396;-66
2022/01/24 14:41:16;;;;;;;22.90;8.73;;;;;;;;;;4971318;28;20511;-67
2022/01/24 14:46:29;;;;;;;18.23;8.70;;;;;;;;;;4969286;28;20420;-68
2022/01/24 14:49:02;;;;;;;20.42;7.78;;;;;;;;;;4969266;28;20420;-66
2022/01/24 14:51:31;;;;;;;17.65;8.23;;;;;;;;;;4969708;28;20116;-67
2022/01/24 14:54:01;;;;;;;18.10;9.65;;;;;;;;;;4951602;28;20325;-67
2022/01/24 14:56:27;;;;;;;17.38;8.13;;;;;;;;;;4935568;28;20437;-66
2022/01/24 14:58:53;;;;;;;21.73;8.65;;;;;;;;;;4952251;28;20390;-66
2022/01/24 15:01:19;;;;;;;17.05;8.00;;;;;;;;;;4969367;28;20457;-66
2022/01/24 15:03:45;;;;;;;19.02;8.80;;;;;;;;;;4969645;28;20445;-66
2022/01/24 15:06:13;;;;;;;23.60;8.32;;;;;;;;;;4969197;28;20460;-66
2022/01/24 15:08:40;;;;;;;23.17;7.88;;;;;;;;;;4969477;28;20160;-66
2022/01/24 15:11:06;;;;;;;19.40;9.18;;;;;;;;;;4951291;28;20534;-66
2022/01/24 15:13:40;;;;;;;23.00;8.30;;;;;;;;;;4951647;28;20340;-66
2022/01/24 15:16:18;;;;;;;21.52;7.00;;;;;;;;;;4952954;28;20360;-66
2022/01/24 15:26:56;;;;;;;16.05;7.43;;;;;;;;;;4953868;28;20464;-66
2022/01/24 15:29:21;;;;;;;15.70;7.75;;;;;;;;;;4969265;28;20588;-66
2022/01/24 15:31:47;;;;;;;20.83;8.48;;;;;;;;;;4951958;28;20608;-66
2022/01/24 15:34:14;;;;;;;21.77;8.63;;;;;;;;;;4952684;28;20387;-67
2022/01/24 15:36:41;;;;;;;16.20;8.05;;;;;;;;;;4969391;28;20021;-66
2022/01/24 15:39:07;;;;;;;19.67;8.27;;;;;;;;;;4951445;28;20356;-66
2022/01/24 15:41:33;;;;;;;17.88;8.27;;;;;;;;;;4951133;28;20056;-66
2022/01/24 15:44:20;;;;;;;20.23;7.05;;;;;;;;;;4951409;28;20036;-66
2022/01/24 15:46:53;;;;;;;26.75;8.50;;;;;;;;;;4969300;28;20332;-66
2022/01/24 15:49:18;;;;;;;18.02;7.57;;;;;;;;;;4951452;28;20472;-69
2022/01/24 15:51:44;;;;;;;23.58;9.80;;;;;;;;;;4968853;28;20109;-66
2022/01/24 15:54:11;;;;;;;18.30;7.68;;;;;;;;;;4969128;28;20440;-66
2022/01/24 15:59:04;;;;;;;25.35;10.02;;;;;;;;;;4968905;28;20436;-67
2022/01/24 16:01:31;;;;;;;23.95;10.73;;;;;;;;;;4969496;28;20473;-68
2022/01/24 16:03:56;;;;;;;23.23;10.10;;;;;;;;;;4972727;28;20510;-66
2022/01/24 16:06:22;;;;;;;22.27;10.32;;;;;;;;;;4972544;28;20478;-66
2022/01/24 16:08:47;;;;;;;24.83;9.98;;;;;;;;;;4972660;28;20322;-66
2022/01/24 16:11:12;;;;;;;21.35;9.75;;;;;;;;;;4954502;28;20482;-66
2022/01/24 16:13:39;;;;;;;23.45;10.02;;;;;;;;;;4954459;28;20503;-67
2022/01/24 16:16:05;;;;;;;19.73;9.52;;;;;;;;;;4971963;28;20080;-66
2022/01/24 16:18:31;;;;;;;24.17;10.15;;;;;;;;;;4971907;28;20458;-66
2022/01/24 16:23:26;;;;;;;19.33;8.85;;;;;;;;;;4954455;28;20106;-67
2022/01/24 16:25:53;;;;;;;22.95;10.35;;;;;;;;;;4971677;28;20502;-67
2022/01/24 16:28:24;;;;;;;21.02;9.10;;;;;;;;;;4954422;28;20507;-66
2022/01/24 16:30:55;;;;;;;24.92;9.43;;;;;;;;;;4972118;28;20115;-67
2022/01/24 16:33:21;;;;;;;25.70;9.52;;;;;;;;;;4954481;28;20048;-68
2022/01/24 16:35:49;;;;;;;27.13;10.23;;;;;;;;;;4972121;28;20412;-66
2022/01/24 16:38:14;;;;;;;22.40;10.18;;;;;;;;;;4954810;28;20437;-66